Galliano, LA

2:17 AM CDT on September 28, 2016 (GMT -0500)
Galliano

Weather History for KGAO - February, 2013

Change the Weather History Date:

Saturday, February 2, 2013

  Actual Average (KAXO) Record (KAXO)
Temperature  
Mean Temperature 56 °F -  
Max Temperature 69 °F 58 °F 69 °F (2014)
Min Temperature 42 °F 54 °F 48 °F (2001)
Degree Days  
Heating Degree Days 10    
Growing Degree Days 6 (Base 50)    
Moisture  
Dew Point 50 °F    
Average Humidity 80    
Maximum Humidity 100    
Minimum Humidity 53    
Precipitation  
Precipitation 0.00 in - - ()
Sea Level Pressure  
Sea Level Pressure 30.27 in    
Wind  
Wind Speed 5 mph (East)    
Max Wind Speed 14 mph    
Max Gust Speed 18 mph    
Visibility 10 miles    
Events Fog    
Averages and records for this station are not official NWS values.
T = Trace of Precipitation, MM = Missing Value Source: NWS Daily Summary

Daily Weather History Graph

Daily Weather History Graph

Search for Another Location

Airport or City:

Trip Planner

Search our weather history database for the weather conditions in past years. The results will help you decide how hot, cold, wet, or windy it might be!

Date:

Astronomy

Feb. 02, 2013 Rise Set
Actual Time 6:49 AM CST 5:40 PM CST
Civil Twilight 6:24 AM CST 6:05 PM CST
Nautical Twilight 5:56 AM CST 6:33 PM CST
Astronomical Twilight 5:28 AM CST 7:01 PM CST
Moon No Moon Rise 10:35 AM CST (2/2)
Length of Visible Light 11h 40m
Length of Day
10h 50m
Waning Gibbous, 59% of the Moon is Illuminated
Feb 2
Waning Gibbous
Feb 3
Last Quarter
Feb 10
New
Feb 17
First Quarter
Feb 25
Full

Hourly Weather History & Observations

Time (CST) Temp. Windchill Dew Point Humidity Pressure Visibility Wind Dir Wind Speed Gust Speed Precip Events Conditions
12:15 AM 42.8 °F 41.1 °F 41.0 °F 93% 30.32 in 10.0 mi NE 3.5 mph - N/A   Unknown
12:35 AM 42.8 °F 41.1 °F 41.0 °F 93% 30.31 in 10.0 mi ENE 3.5 mph - N/A   Unknown
12:55 AM 42.8 °F - 41.0 °F 93% 30.32 in 10.0 mi Calm Calm - N/A   Unknown
1:15 AM 44.6 °F 43.1 °F 42.8 °F 93% 30.32 in 10.0 mi NNE 3.5 mph - N/A   Unknown
1:35 AM 44.6 °F - 42.8 °F 93% 30.32 in 10.0 mi Calm Calm - N/A   Unknown
1:55 AM 42.8 °F 40.1 °F 41.0 °F 93% 30.31 in 10.0 mi NNE 4.6 mph - N/A   Unknown
2:15 AM 44.6 °F 41.4 °F 42.8 °F 93% 30.31 in 10.0 mi NNE 5.8 mph - N/A   Unknown
2:35 AM 46.4 °F 44.3 °F 46.4 °F 100% 30.31 in 10.0 mi NNE 4.6 mph - N/A   Unknown
2:55 AM 46.4 °F 44.3 °F 46.4 °F 100% 30.31 in 10.0 mi NNE 4.6 mph - N/A   Unknown
3:15 AM 51.8 °F - 50.0 °F 94% 30.31 in 10.0 mi NNE 5.8 mph - N/A   Unknown
3:35 AM 53.6 °F - 50.0 °F 88% 30.31 in 10.0 mi NNE 5.8 mph - N/A   Unknown
3:55 AM 53.6 °F - 50.0 °F 88% 30.30 in 10.0 mi NNE 5.8 mph - N/A   Unknown
4:15 AM 53.6 °F - 50.0 °F 88% 30.30 in 10.0 mi NNE 5.8 mph - N/A   Unknown
4:35 AM 53.6 °F - 50.0 °F 88% 30.30 in 10.0 mi NNE 5.8 mph - N/A   Unknown
4:55 AM 51.8 °F - 50.0 °F 94% 30.31 in 10.0 mi NNE 4.6 mph - N/A   Unknown
5:15 AM 53.6 °F - 50.0 °F 88% 30.31 in 10.0 mi NE 6.9 mph - N/A   Unknown
5:35 AM 51.8 °F - 50.0 °F 94% 30.31 in 10.0 mi NE 6.9 mph - N/A   Unknown
5:55 AM 51.8 °F - 50.0 °F 94% 30.30 in 10.0 mi NE 8.1 mph - N/A   Unknown
6:15 AM 53.6 °F - 50.0 °F 88% 30.30 in 10.0 mi NE 8.1 mph - N/A   Unknown
6:35 AM 53.6 °F - 50.0 °F 88% 30.30 in 10.0 mi North - - N/A   Unknown
6:55 AM 53.6 °F - 50.0 °F 88% 30.31 in 10.0 mi ENE 9.2 mph - N/A   Unknown
7:15 AM 53.6 °F - 50.0 °F 88% 30.31 in 10.0 mi ENE 6.9 mph - N/A   Unknown
7:35 AM 53.6 °F - 51.8 °F 94% 30.31 in 10.0 mi ENE 9.2 mph - N/A   Unknown
7:55 AM 55.4 °F - 51.8 °F 88% 30.31 in 10.0 mi ENE 9.2 mph - N/A   Unknown
8:15 AM 57.2 °F - 51.8 °F 82% 30.31 in 10.0 mi ENE 9.2 mph - N/A   Unknown
8:35 AM 59.0 °F - 51.8 °F 77% 30.31 in 10.0 mi ENE 11.5 mph 17.3 mph N/A   Unknown
8:55 AM 60.8 °F - 51.8 °F 72% 30.31 in 10.0 mi ENE 12.7 mph 17.3 mph N/A   Unknown
9:15 AM 60.8 °F - 51.8 °F 72% 30.32 in 10.0 mi ENE 10.4 mph 17.3 mph N/A   Unknown
9:35 AM 62.6 °F - 51.8 °F 68% 30.32 in 10.0 mi ENE 10.4 mph - N/A   Unknown
9:55 AM 62.6 °F - 51.8 °F 68% 30.31 in 10.0 mi East 11.5 mph - N/A   Unknown
10:15 AM 62.6 °F - 51.8 °F 68% 30.31 in 10.0 mi ENE 11.5 mph 16.1 mph N/A   Unknown
10:35 AM 62.6 °F - 51.8 °F 68% 30.30 in 10.0 mi East 12.7 mph - N/A   Unknown
10:55 AM 64.4 °F - 51.8 °F 64% 30.30 in 10.0 mi East 13.8 mph - N/A   Unknown
11:15 AM 64.4 °F - 51.8 °F 64% 30.29 in 10.0 mi East 13.8 mph 18.4 mph N/A   Unknown
11:35 AM 66.2 °F - 51.8 °F 60% 30.28 in 10.0 mi East 10.4 mph - N/A   Unknown
11:55 AM 66.2 °F - 51.8 °F 60% 30.28 in 10.0 mi East 11.5 mph - N/A   Unknown
12:15 PM 66.2 °F - 51.8 °F 60% 30.26 in 10.0 mi East 11.5 mph 17.3 mph N/A   Unknown
12:35 PM 68.0 °F - 51.8 °F 56% 30.25 in 10.0 mi East 10.4 mph - N/A   Unknown
12:55 PM 68.0 °F - 51.8 °F 56% 30.24 in 10.0 mi East 10.4 mph - N/A   Unknown
1:15 PM 68.0 °F - 51.8 °F 56% 30.24 in 10.0 mi East 9.2 mph - N/A   Unknown
1:35 PM 68.0 °F - 51.8 °F 56% 30.23 in 10.0 mi ESE 8.1 mph - N/A   Unknown
1:55 PM 69.8 °F - 51.8 °F 53% 30.23 in 10.0 mi ESE 6.9 mph - N/A   Unknown
2:15 PM 68.0 °F - 51.8 °F 56% 30.22 in 10.0 mi SE 6.9 mph - N/A   Unknown
2:35 PM 68.0 °F - 51.8 °F 56% 30.22 in 10.0 mi ESE 4.6 mph - N/A   Unknown
2:55 PM 68.0 °F - 51.8 °F 56% 30.22 in 10.0 mi SE 6.9 mph - N/A   Unknown
3:15 PM 69.8 °F - 51.8 °F 53% 30.21 in 10.0 mi ESE 8.1 mph - N/A   Unknown
3:35 PM 68.0 °F - 51.8 °F 56% 30.21 in 10.0 mi SE 6.9 mph - N/A   Unknown
3:55 PM 68.0 °F - 53.6 °F 60% 30.21 in 10.0 mi ESE 6.9 mph - N/A   Unknown
4:15 PM 68.0 °F - 53.6 °F 60% 30.21 in 10.0 mi SE 6.9 mph - N/A   Unknown
4:35 PM 68.0 °F - 53.6 °F 60% 30.21 in 10.0 mi SE 5.8 mph - N/A   Unknown
4:55 PM 66.2 °F - 53.6 °F 64% 30.21 in 10.0 mi SE 4.6 mph - N/A   Unknown
5:15 PM 64.4 °F - 53.6 °F 68% 30.20 in 10.0 mi SE 4.6 mph - N/A   Unknown
5:35 PM 62.6 °F - 53.6 °F 72% 30.20 in 10.0 mi SE 5.8 mph - N/A   Unknown
5:55 PM 60.8 °F - 53.6 °F 77% 30.20 in 10.0 mi SSE 3.5 mph - N/A   Unknown
6:15 PM 60.8 °F - 51.8 °F 72% 30.20 in 10.0 mi SE 3.5 mph - N/A   Unknown
6:35 PM 59.0 °F - 53.6 °F 82% 30.21 in 10.0 mi Calm Calm - N/A   Unknown
6:55 PM 59.0 °F - 53.6 °F 82% 30.21 in 10.0 mi Calm Calm - N/A   Unknown
7:15 PM 59.0 °F - 53.6 °F 82% 30.22 in 10.0 mi Calm Calm - N/A   Unknown
7:35 PM 55.4 °F - 51.8 °F 88% 30.23 in 10.0 mi Calm Calm - N/A   Unknown
7:55 PM 55.4 °F - 51.8 °F 88% 30.23 in 10.0 mi Calm Calm - N/A   Unknown
8:15 PM 53.6 °F - 51.8 °F 94% 30.24 in 10.0 mi Calm Calm - N/A   Unknown
8:35 PM 53.6 °F - 50.0 °F 88% 30.24 in 10.0 mi Calm Calm - N/A   Unknown
8:55 PM 53.6 °F - 51.8 °F 94% 30.24 in 10.0 mi Calm Calm - N/A   Unknown
9:15 PM 51.8 °F - 50.0 °F 94% 30.24 in 10.0 mi Calm Calm - N/A   Unknown
9:35 PM 51.8 °F - 50.0 °F 94% 30.24 in 10.0 mi Calm Calm - N/A   Unknown
9:55 PM 51.8 °F - 50.0 °F 94% 30.24 in 10.0 mi Calm Calm - N/A   Unknown
10:15 PM 50.0 °F - 50.0 °F 100% 30.24 in 7.0 mi Calm Calm - N/A   Unknown
10:35 PM 50.0 °F - 50.0 °F 100% 30.24 in 10.0 mi Calm Calm - N/A   Unknown
10:55 PM 50.0 °F - 50.0 °F 100% 30.23 in 0.8 mi South 3.5 mph - N/A   Mist
11:15 PM 51.8 °F - 50.0 °F 94% 30.23 in 10.0 mi SSW 3.5 mph - N/A   Unknown
11:35 PM 50.0 °F - 48.2 °F 94% 30.23 in 0.5 mi Calm Calm - N/A Fog Fog
11:55 PM 50.0 °F - 48.2 °F 94% 30.23 in 0.2 mi Calm Calm - N/A Fog Fog